createdAt,value
2022-08-17T00:00:51.912Z,0.00
2022-08-17T00:01:52.567Z,0.00
2022-08-17T00:02:51.104Z,0.00
2022-08-17T00:03:51.013Z,0.00
2022-08-17T00:04:51.010Z,0.00
2022-08-17T00:05:51.036Z,0.00
2022-08-17T00:06:51.002Z,0.00
2022-08-17T00:07:51.134Z,0.00
2022-08-17T00:08:50.991Z,0.00
2022-08-17T00:09:50.969Z,0.00
2022-08-17T00:10:50.982Z,0.00
2022-08-17T00:12:40.386Z,0.00
2022-08-17T00:12:52.347Z,0.00
2022-08-17T00:13:50.935Z,0.00
2022-08-17T00:14:51.954Z,0.00
2022-08-17T00:15:50.925Z,0.00
2022-08-17T00:16:57.433Z,0.00
2022-08-17T00:17:51.905Z,0.00
2022-08-17T00:19:01.476Z,0.00
2022-08-17T00:19:51.891Z,0.00
2022-08-17T00:20:50.891Z,0.00
2022-08-17T00:22:32.856Z,0.00
2022-08-17T00:22:52.054Z,0.00
2022-08-17T00:23:50.859Z,0.00
2022-08-17T00:24:50.882Z,0.00
2022-08-17T00:25:50.855Z,0.00
2022-08-17T00:26:50.842Z,0.00
2022-08-17T00:27:50.832Z,0.00
2022-08-17T00:28:50.832Z,0.00
2022-08-17T00:29:50.843Z,0.00
2022-08-17T00:30:53.181Z,0.00
2022-08-17T00:31:50.805Z,0.00
2022-08-17T00:33:12.481Z,0.00
2022-08-17T00:33:51.791Z,0.00
2022-08-17T00:34:50.782Z,0.00
2022-08-17T00:35:50.785Z,0.00
2022-08-17T00:36:50.808Z,0.00
2022-08-17T00:37:50.773Z,0.00
2022-08-17T00:38:50.774Z,0.00
2022-08-17T00:39:50.796Z,0.00
2022-08-17T00:40:51.827Z,0.00
2022-08-17T00:41:50.756Z,0.00
2022-08-17T00:42:50.788Z,0.00
2022-08-17T00:43:50.711Z,0.00
2022-08-17T00:44:50.729Z,0.00
2022-08-17T00:45:50.739Z,0.00
2022-08-17T00:46:50.708Z,0.00
2022-08-17T00:47:50.688Z,0.00
2022-08-17T00:48:50.680Z,0.00
2022-08-17T00:49:50.674Z,0.00
2022-08-17T00:50:50.664Z,0.00
2022-08-17T00:51:50.682Z,0.00
2022-08-17T00:52:50.828Z,0.00
2022-08-17T00:53:50.639Z,0.00
2022-08-17T00:54:50.645Z,0.00
2022-08-17T00:55:50.642Z,0.00
2022-08-17T00:56:50.679Z,0.00
2022-08-17T00:57:55.070Z,0.00
2022-08-17T00:58:50.598Z,0.00
2022-08-17T00:59:55.979Z,0.00
2022-08-17T01:00:51.602Z,0.00
2022-08-17T01:01:50.585Z,0.00
2022-08-17T01:02:50.597Z,0.00
2022-08-17T01:03:50.570Z,0.00
2022-08-17T01:04:50.547Z,0.00
2022-08-17T01:05:50.546Z,0.00
2022-08-17T01:06:50.617Z,0.00
2022-08-17T01:07:50.544Z,0.00
2022-08-17T01:08:50.535Z,0.00
2022-08-17T01:09:51.517Z,0.00
2022-08-17T01:10:58.882Z,0.00
2022-08-17T01:11:51.524Z,0.00
2022-08-17T01:12:50.662Z,0.00
2022-08-17T01:13:50.510Z,0.00
2022-08-17T01:14:50.499Z,0.00
2022-08-17T01:15:50.505Z,0.00
2022-08-17T01:16:50.483Z,0.00
2022-08-17T01:17:50.458Z,0.00
2022-08-17T01:18:50.447Z,0.00
2022-08-17T01:19:50.457Z,0.00
2022-08-17T01:20:50.450Z,0.00
2022-08-17T01:21:50.430Z,0.00
2022-08-17T01:22:50.614Z,0.00
2022-08-17T01:23:50.443Z,0.00
2022-08-17T01:24:50.403Z,0.00
2022-08-17T01:25:50.415Z,0.00
2022-08-17T01:26:50.423Z,0.00
2022-08-17T01:27:50.395Z,0.00
2022-08-17T01:28:54.974Z,0.00
2022-08-17T01:29:50.367Z,0.00
2022-08-17T01:30:57.342Z,0.00
2022-08-17T01:31:51.380Z,0.00
2022-08-17T01:32:50.640Z,0.00
2022-08-17T01:33:50.410Z,0.00
2022-08-17T01:34:50.907Z,0.00
2022-08-17T01:35:50.342Z,0.00
2022-08-17T01:36:50.321Z,0.00
2022-08-17T01:37:50.314Z,0.00
2022-08-17T01:38:50.324Z,0.00
2022-08-17T01:39:50.375Z,0.00
2022-08-17T01:40:50.290Z,0.00
2022-08-17T01:41:51.284Z,0.00
2022-08-17T01:42:50.453Z,0.00
2022-08-17T01:43:50.265Z,0.00
2022-08-17T01:44:50.258Z,0.00
2022-08-17T01:45:50.296Z,0.00
2022-08-17T01:46:51.266Z,0.00
2022-08-17T01:47:50.238Z,0.00
2022-08-17T01:48:50.231Z,0.00
2022-08-17T01:49:50.238Z,0.00
2022-08-17T01:50:50.218Z,0.00
2022-08-17T01:51:50.230Z,0.00
2022-08-17T01:52:50.366Z,0.00
2022-08-17T01:53:50.191Z,0.00
2022-08-17T01:54:50.187Z,0.00
2022-08-17T01:55:50.183Z,0.00
2022-08-17T01:56:50.164Z,0.00
2022-08-17T01:57:50.190Z,0.00
2022-08-17T01:58:50.154Z,0.00
2022-08-17T01:59:50.144Z,0.00
2022-08-17T02:01:00.852Z,0.00
2022-08-17T02:01:51.172Z,0.00
2022-08-17T02:02:50.330Z,0.00
2022-08-17T02:03:59.219Z,0.00
2022-08-17T02:04:51.108Z,0.00
2022-08-17T02:05:50.100Z,0.00
2022-08-17T02:06:53.745Z,0.00
2022-08-17T02:07:59.581Z,0.00
2022-08-17T02:09:01.814Z,0.00
2022-08-17T02:09:52.775Z,0.00
2022-08-17T02:10:50.071Z,0.00
2022-08-17T02:11:50.044Z,0.00
2022-08-17T02:12:50.236Z,0.00
2022-08-17T02:13:57.851Z,0.00
2022-08-17T02:14:51.041Z,0.00
2022-08-17T02:15:50.029Z,0.00
2022-08-17T02:16:50.008Z,0.00
2022-08-17T02:17:50.006Z,0.00
2022-08-17T02:18:49.994Z,0.00
2022-08-17T02:19:50.011Z,0.00
2022-08-17T02:20:49.978Z,0.00
2022-08-17T02:21:49.972Z,0.00
2022-08-17T02:22:50.070Z,0.00
2022-08-17T02:23:49.969Z,0.00
2022-08-17T02:24:59.731Z,0.00
2022-08-17T02:25:50.953Z,0.00
2022-08-17T02:26:49.933Z,0.00
2022-08-17T02:27:49.931Z,0.00
2022-08-17T02:28:49.930Z,0.00
2022-08-17T02:29:49.944Z,0.00
2022-08-17T02:31:01.156Z,0.00
2022-08-17T02:31:50.900Z,0.00
2022-08-17T02:32:50.016Z,0.00
2022-08-17T02:34:00.495Z,0.00
2022-08-17T02:34:50.884Z,0.00
2022-08-17T02:35:49.863Z,0.00
2022-08-17T02:36:49.862Z,0.00
2022-08-17T02:37:51.829Z,0.00
2022-08-17T02:38:50.845Z,0.00
2022-08-17T02:39:49.933Z,0.00
2022-08-17T02:40:49.826Z,0.00
2022-08-17T02:41:49.827Z,0.00
2022-08-17T02:42:49.976Z,0.00
2022-08-17T02:43:49.817Z,0.00
2022-08-17T02:44:49.790Z,0.00
2022-08-17T02:45:49.807Z,0.00
2022-08-17T02:46:49.774Z,0.00
2022-08-17T02:47:49.799Z,0.00
2022-08-17T02:48:49.759Z,0.00
2022-08-17T02:49:54.203Z,0.00
2022-08-17T02:50:50.752Z,0.00
2022-08-17T02:51:49.743Z,0.00
2022-08-17T02:53:02.249Z,0.00
2022-08-17T02:53:50.730Z,0.00
2022-08-17T02:54:49.718Z,0.00
2022-08-17T02:55:49.710Z,0.00
2022-08-17T02:56:49.698Z,0.00
2022-08-17T02:57:49.695Z,0.00
2022-08-17T02:58:49.714Z,0.00
2022-08-17T02:59:49.675Z,0.00
2022-08-17T03:00:49.664Z,0.00
2022-08-17T03:01:49.686Z,0.00
2022-08-17T03:02:49.832Z,0.00
2022-08-17T03:03:49.645Z,0.00
2022-08-17T03:04:49.661Z,0.00
2022-08-17T03:05:49.641Z,0.00
2022-08-17T03:06:49.623Z,0.00
2022-08-17T03:07:49.624Z,0.00
2022-08-17T03:08:49.638Z,0.00
2022-08-17T03:09:49.632Z,0.00
2022-08-17T03:10:49.587Z,0.00
2022-08-17T03:11:49.613Z,0.00
2022-08-17T03:12:49.780Z,0.00
2022-08-17T03:13:49.574Z,0.00
2022-08-17T03:14:49.565Z,0.00
2022-08-17T03:15:49.581Z,0.00
2022-08-17T03:16:49.616Z,0.00
2022-08-17T03:17:49.543Z,0.00
2022-08-17T03:18:49.560Z,0.00
2022-08-17T03:19:49.532Z,0.00
2022-08-17T03:20:49.518Z,0.00
2022-08-17T03:21:54.796Z,0.00
2022-08-17T03:22:53.377Z,0.00
2022-08-17T03:23:49.499Z,0.00
2022-08-17T03:24:50.513Z,0.00
2022-08-17T03:25:49.488Z,0.00
2022-08-17T03:26:49.475Z,0.00
2022-08-17T03:27:49.482Z,0.00
2022-08-17T03:28:49.475Z,0.00
2022-08-17T03:29:49.459Z,0.00
2022-08-17T03:30:49.469Z,0.00
2022-08-17T03:31:49.597Z,0.00
2022-08-17T03:32:49.701Z,0.00
2022-08-17T03:33:49.434Z,0.00
2022-08-17T03:34:49.413Z,0.00
2022-08-17T03:35:49.409Z,0.00
2022-08-17T03:36:49.408Z,0.00
2022-08-17T03:38:00.040Z,0.00
2022-08-17T03:38:50.394Z,0.00
2022-08-17T03:39:49.447Z,0.00
2022-08-17T03:40:56.753Z,0.00
2022-08-17T03:41:50.389Z,0.00
2022-08-17T03:42:49.429Z,0.00
2022-08-17T03:43:49.359Z,0.00
2022-08-17T03:44:49.352Z,0.00
2022-08-17T03:45:49.337Z,0.00
2022-08-17T03:46:49.357Z,0.00
2022-08-17T03:47:49.325Z,0.00
2022-08-17T03:48:49.318Z,0.00
2022-08-17T03:49:49.312Z,0.00
2022-08-17T03:50:49.313Z,0.00
2022-08-17T03:51:49.318Z,0.00
2022-08-17T03:52:51.718Z,0.00
2022-08-17T03:53:49.302Z,0.00
2022-08-17T03:54:49.262Z,0.00
2022-08-17T03:55:49.270Z,0.00
2022-08-17T03:56:49.259Z,0.00
2022-08-17T03:57:49.255Z,0.00
2022-08-17T03:58:49.254Z,0.00
2022-08-17T03:59:49.266Z,0.00
2022-08-17T04:00:49.219Z,0.00
2022-08-17T04:01:49.311Z,0.00
2022-08-17T04:02:49.408Z,0.00
2022-08-17T04:03:49.203Z,0.00
2022-08-17T04:04:49.185Z,0.00
2022-08-17T04:05:49.204Z,0.00
2022-08-17T04:06:49.174Z,0.00
2022-08-17T04:07:49.197Z,0.00
2022-08-17T04:08:49.163Z,0.00
2022-08-17T04:09:49.156Z,0.00
2022-08-17T04:10:49.146Z,0.00
2022-08-17T04:11:49.175Z,0.00
2022-08-17T04:12:49.339Z,0.00
2022-08-17T04:13:49.128Z,5.62
2022-08-17T04:14:52.037Z,5.62
2022-08-17T04:15:49.103Z,5.62
2022-08-17T04:16:49.102Z,5.62
2022-08-17T04:17:49.112Z,5.62
2022-08-17T04:18:49.083Z,5.62
2022-08-17T04:19:49.076Z,5.62
2022-08-17T04:20:49.061Z,5.62
2022-08-17T04:21:49.099Z,5.62
2022-08-17T04:22:49.175Z,5.62
2022-08-17T04:23:49.071Z,11.25
2022-08-17T04:24:49.030Z,11.25
2022-08-17T04:25:49.028Z,11.25
2022-08-17T04:26:53.655Z,11.25
2022-08-17T04:27:50.023Z,11.25
2022-08-17T04:28:49.026Z,11.25
2022-08-17T04:29:54.938Z,11.25
2022-08-17T04:30:49.999Z,16.88
2022-08-17T04:31:48.992Z,16.88
2022-08-17T04:33:04.252Z,16.88
2022-08-17T04:33:49.994Z,16.88
2022-08-17T04:34:48.966Z,16.88
2022-08-17T04:35:48.984Z,22.50
2022-08-17T04:36:50.208Z,22.50
2022-08-17T04:37:48.939Z,22.50
2022-08-17T04:38:48.937Z,22.50
2022-08-17T04:39:49.036Z,22.50
2022-08-17T04:40:48.938Z,22.50
2022-08-17T04:41:48.925Z,22.50
2022-08-17T04:42:49.040Z,22.50
2022-08-17T04:43:49.907Z,28.12
2022-08-17T04:44:48.897Z,28.12
2022-08-17T04:45:55.212Z,28.12
2022-08-17T04:46:48.930Z,28.12
2022-08-17T04:47:48.866Z,28.12
2022-08-17T04:48:48.853Z,33.75
2022-08-17T04:49:48.854Z,33.75
2022-08-17T04:50:48.838Z,33.75
2022-08-17T04:51:56.280Z,39.38
2022-08-17T04:52:48.843Z,45.00
2022-08-17T04:53:55.031Z,45.00
2022-08-17T04:54:49.803Z,45.00
2022-08-17T04:55:48.803Z,56.25
2022-08-17T04:56:48.807Z,56.25
2022-08-17T04:57:48.789Z,73.12
2022-08-17T04:58:49.796Z,101.25
2022-08-17T04:59:48.774Z,146.25
2022-08-17T05:00:48.810Z,185.62
2022-08-17T05:01:48.876Z,196.88
2022-08-17T05:02:50.179Z,219.38
2022-08-17T05:03:48.744Z,230.62
2022-08-17T05:04:48.736Z,247.50
2022-08-17T05:05:48.758Z,264.38
2022-08-17T05:06:48.725Z,264.38
2022-08-17T05:07:48.735Z,275.62
2022-08-17T05:08:48.738Z,236.25
2022-08-17T05:09:48.693Z,286.88
2022-08-17T05:10:48.700Z,303.75
2022-08-17T05:11:48.682Z,292.50
2022-08-17T05:12:48.744Z,303.75
2022-08-17T05:13:48.688Z,275.62
2022-08-17T05:14:48.662Z,281.25
2022-08-17T05:15:48.695Z,253.12
2022-08-17T05:16:48.651Z,230.62
2022-08-17T05:17:48.638Z,275.62
2022-08-17T05:18:48.655Z,365.62
2022-08-17T05:19:51.884Z,393.75
2022-08-17T05:20:48.635Z,438.75
2022-08-17T05:21:48.608Z,410.62
2022-08-17T05:22:48.692Z,382.50
2022-08-17T05:23:50.314Z,331.88
2022-08-17T05:24:55.442Z,360.00
2022-08-17T05:25:49.767Z,360.00
2022-08-17T05:26:48.576Z,376.88
2022-08-17T05:27:48.602Z,365.62
2022-08-17T05:28:48.564Z,410.62
2022-08-17T05:29:48.558Z,421.88
2022-08-17T05:30:48.607Z,410.62
2022-08-17T05:31:48.542Z,427.50
2022-08-17T05:32:48.576Z,416.25
2022-08-17T05:33:48.521Z,433.12
2022-08-17T05:34:48.512Z,365.62
2022-08-17T05:35:48.510Z,444.38
2022-08-17T05:36:48.494Z,585.00
2022-08-17T05:37:48.482Z,585.00
2022-08-17T05:38:48.500Z,556.88
2022-08-17T05:39:48.518Z,630.00
2022-08-17T05:40:48.478Z,843.75
2022-08-17T05:41:48.509Z,928.12
2022-08-17T05:42:48.454Z,883.12
2022-08-17T05:43:50.890Z,900.00
2022-08-17T05:44:48.458Z,916.88
2022-08-17T05:45:55.795Z,950.62
2022-08-17T05:46:49.435Z,939.38
2022-08-17T05:47:48.422Z,956.25
2022-08-17T05:48:48.406Z,984.38
2022-08-17T05:49:49.114Z,933.75
2022-08-17T05:50:48.419Z,894.38
2022-08-17T05:51:48.393Z,961.88
2022-08-17T05:52:48.388Z,1012.50
2022-08-17T05:53:48.377Z,1001.25
2022-08-17T05:54:48.366Z,1006.88
2022-08-17T05:55:48.383Z,1029.38
2022-08-17T05:56:48.355Z,922.50
2022-08-17T05:57:53.811Z,961.88
2022-08-17T05:58:49.345Z,956.25
2022-08-17T05:59:48.352Z,956.25
2022-08-17T06:00:48.342Z,1023.75
2022-08-17T06:01:48.344Z,894.38
2022-08-17T06:02:48.350Z,843.75
2022-08-17T06:03:48.315Z,933.75
2022-08-17T06:04:48.305Z,933.75
2022-08-17T06:05:48.323Z,849.38
2022-08-17T06:06:48.299Z,787.50
2022-08-17T06:07:48.300Z,736.88
2022-08-17T06:08:48.288Z,793.12
2022-08-17T06:09:48.271Z,826.88
2022-08-17T06:10:48.281Z,956.25
2022-08-17T06:11:53.510Z,990.00
2022-08-17T06:12:48.334Z,961.88
2022-08-17T06:13:48.251Z,1023.75
2022-08-17T06:14:48.233Z,1063.12
2022-08-17T06:15:48.251Z,1040.62
2022-08-17T06:16:48.238Z,1012.50
2022-08-17T06:17:48.225Z,984.38
2022-08-17T06:18:48.206Z,1102.50
2022-08-17T06:19:48.212Z,1164.38
2022-08-17T06:20:48.213Z,973.12
2022-08-17T06:21:48.191Z,1018.12
2022-08-17T06:22:48.203Z,1248.75
2022-08-17T06:23:48.183Z,1299.38
2022-08-17T06:24:48.191Z,1068.75
2022-08-17T06:25:48.170Z,1209.38
2022-08-17T06:26:48.158Z,1260.00
2022-08-17T06:27:48.190Z,1147.50
2022-08-17T06:28:49.150Z,1209.38
2022-08-17T06:29:48.168Z,1265.62
2022-08-17T06:30:59.559Z,1215.00
2022-08-17T06:31:49.170Z,1153.12
2022-08-17T06:32:48.119Z,1175.62
2022-08-17T06:33:48.116Z,1383.75
2022-08-17T06:34:48.128Z,1355.62
2022-08-17T06:35:48.116Z,1085.62
2022-08-17T06:36:48.123Z,1220.62
2022-08-17T06:37:48.095Z,1423.12
2022-08-17T06:38:48.079Z,1186.88
2022-08-17T06:39:48.105Z,1113.75
2022-08-17T06:40:48.060Z,1198.12
2022-08-17T06:41:48.065Z,1231.88
2022-08-17T06:43:04.981Z,1220.62
2022-08-17T06:43:49.041Z,1237.50
2022-08-17T06:44:51.411Z,1310.62
2022-08-17T06:45:48.039Z,1265.62
2022-08-17T06:46:48.021Z,1192.50
2022-08-17T06:47:48.037Z,1243.12
2022-08-17T06:48:48.014Z,1372.50
2022-08-17T06:49:53.188Z,1440.00
2022-08-17T06:50:48.001Z,1344.38
2022-08-17T06:51:48.006Z,1288.12
2022-08-17T06:52:48.112Z,1321.88
2022-08-17T06:53:48.039Z,1383.75
2022-08-17T06:54:47.978Z,1192.50
2022-08-17T06:55:47.972Z,1305.00
2022-08-17T06:56:52.931Z,1305.00
2022-08-17T06:57:48.960Z,1113.75
2022-08-17T06:58:47.944Z,382.50
2022-08-17T06:59:55.545Z,343.12
2022-08-17T07:00:47.997Z,388.12
2022-08-17T07:01:47.924Z,624.38
2022-08-17T07:02:51.890Z,1170.00
2022-08-17T07:03:48.935Z,984.38
2022-08-17T07:04:47.938Z,1018.12
2022-08-17T07:05:47.906Z,399.38
2022-08-17T07:06:47.923Z,320.62
2022-08-17T07:07:47.895Z,337.50
2022-08-17T07:08:47.886Z,264.38
2022-08-17T07:09:47.889Z,286.88
2022-08-17T07:10:47.883Z,286.88
2022-08-17T07:11:47.892Z,388.12
2022-08-17T07:12:47.862Z,348.75
2022-08-17T07:13:51.087Z,315.00
2022-08-17T07:14:47.851Z,315.00
2022-08-17T07:15:47.837Z,315.00
2022-08-17T07:16:47.835Z,309.38
2022-08-17T07:17:48.511Z,309.38
2022-08-17T07:18:47.821Z,303.75
2022-08-17T07:19:47.807Z,298.12
2022-08-17T07:20:47.805Z,298.12
2022-08-17T07:21:47.831Z,292.50
2022-08-17T07:22:55.251Z,286.88
2022-08-17T07:23:47.788Z,286.88
2022-08-17T07:24:47.783Z,281.25
2022-08-17T07:25:47.777Z,281.25
2022-08-17T07:26:47.784Z,275.62
2022-08-17T07:27:47.766Z,275.62
2022-08-17T07:28:47.750Z,275.62
2022-08-17T07:29:47.748Z,270.00
2022-08-17T07:30:47.781Z,264.38
2022-08-17T07:31:47.737Z,270.00
2022-08-17T07:32:47.745Z,264.38
2022-08-17T07:33:47.724Z,258.75
2022-08-17T07:34:47.713Z,247.50
2022-08-17T07:35:47.712Z,253.12
2022-08-17T07:36:47.705Z,253.12
2022-08-17T07:37:47.698Z,253.12
2022-08-17T07:38:47.695Z,258.75
2022-08-17T07:39:59.729Z,264.38
2022-08-17T07:40:48.746Z,264.38
2022-08-17T07:41:53.122Z,258.75
2022-08-17T07:42:48.683Z,264.38
2022-08-17T07:43:47.664Z,270.00
2022-08-17T07:44:47.652Z,264.38
2022-08-17T07:45:47.656Z,258.75
2022-08-17T07:46:47.635Z,270.00
2022-08-17T07:47:47.629Z,270.00
2022-08-17T07:48:47.638Z,264.38
2022-08-17T07:49:47.611Z,264.38
2022-08-17T07:50:49.740Z,264.38
2022-08-17T07:51:47.603Z,270.00
2022-08-17T07:52:52.214Z,270.00
2022-08-17T07:53:47.586Z,270.00
2022-08-17T07:54:47.599Z,275.62
2022-08-17T07:55:47.577Z,270.00
2022-08-17T07:56:47.587Z,241.88
2022-08-17T07:57:47.621Z,264.38
2022-08-17T07:58:47.554Z,275.62
2022-08-17T07:59:47.564Z,253.12
2022-08-17T08:00:47.562Z,270.00
2022-08-17T08:01:47.624Z,258.75
2022-08-17T08:02:48.537Z,264.38
2022-08-17T08:03:50.469Z,258.75
2022-08-17T08:05:03.835Z,253.12
2022-08-17T08:05:49.447Z,275.62
2022-08-17T08:06:47.497Z,258.75
2022-08-17T08:07:47.512Z,281.25
2022-08-17T08:08:47.481Z,264.38
2022-08-17T08:09:47.532Z,247.50
2022-08-17T08:10:47.465Z,258.75
2022-08-17T08:11:47.463Z,264.38
2022-08-17T08:12:47.465Z,247.50
2022-08-17T08:13:47.463Z,236.25
2022-08-17T08:14:47.444Z,225.00
2022-08-17T08:15:50.435Z,225.00
2022-08-17T08:16:48.444Z,202.50
2022-08-17T08:17:47.444Z,225.00
2022-08-17T08:18:55.302Z,236.25
2022-08-17T08:19:47.415Z,241.88
2022-08-17T08:20:53.225Z,241.88
2022-08-17T08:21:48.403Z,241.88
2022-08-17T08:22:47.408Z,258.75
2022-08-17T08:23:47.386Z,264.38
2022-08-17T08:24:47.415Z,270.00
2022-08-17T08:25:50.902Z,270.00
2022-08-17T08:26:47.368Z,270.00
2022-08-17T08:27:47.445Z,270.00
2022-08-17T08:28:47.354Z,270.00
2022-08-17T08:29:47.375Z,264.38
2022-08-17T08:30:47.369Z,258.75
2022-08-17T08:31:47.344Z,253.12
2022-08-17T08:32:47.326Z,258.75
2022-08-17T08:33:47.353Z,286.88
2022-08-17T08:35:01.987Z,208.12
2022-08-17T08:35:48.308Z,191.25
2022-08-17T08:37:12.771Z,196.88
2022-08-17T08:37:48.300Z,241.88
2022-08-17T08:38:47.288Z,202.50
2022-08-17T08:39:47.313Z,208.12
2022-08-17T08:40:47.274Z,225.00
2022-08-17T08:41:47.260Z,225.00
2022-08-17T08:42:47.290Z,236.25
2022-08-17T08:43:52.234Z,230.62
2022-08-17T08:45:00.998Z,270.00
2022-08-17T08:45:48.241Z,253.12
2022-08-17T08:46:47.330Z,275.62
2022-08-17T08:47:47.335Z,309.38
2022-08-17T08:48:56.982Z,292.50
2022-08-17T08:50:04.999Z,286.88
2022-08-17T08:50:48.228Z,270.00
2022-08-17T08:51:47.220Z,253.12
2022-08-17T08:52:47.193Z,253.12
2022-08-17T08:53:47.183Z,236.25
2022-08-17T08:54:47.166Z,236.25
2022-08-17T08:55:47.167Z,225.00
2022-08-17T08:57:11.946Z,225.00
2022-08-17T08:57:48.156Z,225.00
2022-08-17T08:58:47.140Z,236.25
2022-08-17T08:59:51.192Z,213.75
2022-08-17T09:00:48.132Z,219.38
2022-08-17T09:01:47.313Z,191.25
2022-08-17T09:02:47.136Z,185.62
2022-08-17T09:03:52.816Z,180.00
2022-08-17T09:05:12.729Z,174.38
2022-08-17T09:05:48.426Z,174.38
2022-08-17T09:06:47.100Z,174.38
2022-08-17T09:07:47.158Z,168.75
2022-08-17T09:08:47.080Z,163.12
2022-08-17T09:09:47.076Z,163.12
2022-08-17T09:10:47.088Z,163.12
2022-08-17T09:12:01.046Z,168.75
2022-08-17T09:12:48.048Z,168.75
2022-08-17T09:13:47.049Z,168.75
2022-08-17T09:14:48.037Z,174.38
2022-08-17T09:15:47.031Z,185.62
2022-08-17T09:16:47.039Z,253.12
2022-08-17T09:17:47.148Z,219.38
2022-08-17T09:19:02.330Z,298.12
2022-08-17T09:19:48.005Z,298.12
2022-08-17T09:20:50.224Z,303.75
2022-08-17T09:21:48.634Z,298.12
2022-08-17T09:22:47.007Z,286.88
2022-08-17T09:23:46.989Z,270.00
2022-08-17T09:24:46.972Z,298.12
2022-08-17T09:25:46.960Z,298.12
2022-08-17T09:26:46.961Z,292.50
2022-08-17T09:27:46.981Z,225.00
2022-08-17T09:28:46.973Z,298.12
2022-08-17T09:29:46.938Z,241.88
2022-08-17T09:30:46.936Z,258.75
2022-08-17T09:31:49.435Z,320.62
2022-08-17T09:32:46.936Z,320.62
2022-08-17T09:33:46.913Z,241.88
2022-08-17T09:34:47.030Z,275.62
2022-08-17T09:35:46.927Z,298.12
2022-08-17T09:36:46.897Z,281.25
2022-08-17T09:37:46.928Z,292.50
2022-08-17T09:38:46.872Z,286.88
2022-08-17T09:39:46.960Z,236.25
2022-08-17T09:40:46.886Z,236.25
2022-08-17T09:41:48.558Z,191.25
2022-08-17T09:42:46.860Z,185.62
2022-08-17T09:43:46.850Z,168.75
2022-08-17T09:44:46.859Z,168.75
2022-08-17T09:45:46.863Z,168.75
2022-08-17T09:46:46.825Z,174.38
2022-08-17T09:47:46.909Z,174.38
2022-08-17T09:48:46.889Z,174.38
2022-08-17T09:49:46.803Z,185.62
2022-08-17T09:51:01.597Z,180.00
2022-08-17T09:51:47.802Z,180.00
2022-08-17T09:52:46.808Z,180.00
2022-08-17T09:53:46.778Z,180.00
2022-08-17T09:54:46.770Z,180.00
2022-08-17T09:55:46.792Z,180.00
2022-08-17T09:56:56.423Z,185.62
2022-08-17T09:57:47.774Z,185.62
2022-08-17T09:58:46.750Z,185.62
2022-08-17T09:59:46.733Z,180.00
2022-08-17T10:00:46.771Z,180.00
2022-08-17T10:01:46.736Z,174.38
2022-08-17T10:02:46.727Z,174.38
2022-08-17T10:03:46.734Z,174.38
2022-08-17T10:04:46.695Z,163.12
2022-08-17T10:05:46.754Z,163.12
2022-08-17T10:06:46.693Z,157.50
2022-08-17T10:07:46.769Z,151.88
2022-08-17T10:08:46.675Z,146.25
2022-08-17T10:09:46.688Z,146.25
2022-08-17T10:10:56.160Z,146.25
2022-08-17T10:11:48.297Z,146.25
2022-08-17T10:12:47.209Z,168.75
2022-08-17T10:13:53.072Z,146.25
2022-08-17T10:14:46.636Z,163.12
2022-08-17T10:15:47.652Z,168.75
2022-08-17T10:16:46.621Z,151.88
2022-08-17T10:17:46.698Z,140.62
2022-08-17T10:18:46.624Z,129.38
2022-08-17T10:19:46.598Z,123.75
2022-08-17T10:20:46.608Z,112.50
2022-08-17T10:21:46.597Z,106.88
2022-08-17T10:22:51.176Z,101.25
2022-08-17T10:23:46.573Z,101.25
2022-08-17T10:25:21.682Z,95.62
2022-08-17T10:25:55.683Z,95.62
2022-08-17T10:26:56.585Z,95.62
2022-08-17T10:27:47.545Z,95.62
2022-08-17T10:28:46.541Z,95.62
2022-08-17T10:29:48.572Z,95.62
2022-08-17T10:30:46.528Z,101.25
2022-08-17T10:31:46.519Z,101.25
2022-08-17T10:32:46.540Z,106.88
2022-08-17T10:33:46.508Z,106.88
2022-08-17T10:34:46.497Z,112.50
2022-08-17T10:35:46.495Z,112.50
2022-08-17T10:36:46.495Z,118.12
2022-08-17T10:37:46.584Z,118.12
2022-08-17T10:38:46.486Z,118.12
2022-08-17T10:39:50.530Z,123.75
2022-08-17T10:40:47.566Z,123.75
2022-08-17T10:41:46.442Z,123.75
2022-08-17T10:42:46.456Z,123.75
2022-08-17T10:44:37.414Z,118.12
2022-08-17T10:44:47.418Z,118.12
2022-08-17T10:45:47.033Z,112.50
2022-08-17T10:46:46.420Z,112.50
2022-08-17T10:47:55.237Z,106.88
2022-08-17T10:48:46.399Z,101.25
2022-08-17T10:49:46.396Z,95.62
2022-08-17T10:50:46.400Z,95.62
2022-08-17T10:51:46.387Z,95.62
2022-08-17T10:52:46.372Z,90.00
2022-08-17T10:53:46.376Z,90.00
2022-08-17T10:54:46.357Z,90.00
2022-08-17T10:55:46.353Z,84.38
2022-08-17T10:56:46.392Z,84.38
2022-08-17T10:57:46.370Z,78.75
2022-08-17T10:58:46.329Z,78.75
2022-08-17T10:59:46.349Z,78.75
2022-08-17T11:00:46.371Z,73.12
2022-08-17T11:01:46.313Z,73.12
2022-08-17T11:02:46.355Z,73.12
2022-08-17T11:03:46.298Z,73.12
2022-08-17T11:04:46.306Z,67.50
2022-08-17T11:05:46.308Z,67.50
2022-08-17T11:06:46.328Z,67.50
2022-08-17T11:07:46.271Z,61.88
2022-08-17T11:08:46.289Z,61.88
2022-08-17T11:09:46.261Z,61.88
2022-08-17T11:10:51.361Z,61.88
2022-08-17T11:11:47.240Z,56.25
2022-08-17T11:12:46.277Z,56.25
2022-08-17T11:13:46.231Z,56.25
2022-08-17T11:14:46.218Z,56.25
2022-08-17T11:15:46.239Z,50.62
2022-08-17T11:16:46.199Z,50.62
2022-08-17T11:17:46.192Z,50.62
2022-08-17T11:18:46.181Z,50.62
2022-08-17T11:19:46.182Z,50.62
2022-08-17T11:20:46.171Z,50.62
2022-08-17T11:21:46.212Z,50.62
2022-08-17T11:22:46.223Z,50.62
2022-08-17T11:23:46.159Z,50.62
2022-08-17T11:24:46.149Z,50.62
2022-08-17T11:25:46.154Z,56.25
2022-08-17T11:26:46.135Z,56.25
2022-08-17T11:27:46.142Z,56.25
2022-08-17T11:28:46.117Z,61.88
2022-08-17T11:29:50.596Z,61.88
2022-08-17T11:30:47.107Z,67.50
2022-08-17T11:31:46.111Z,73.12
2022-08-17T11:32:47.678Z,78.75
2022-08-17T11:33:46.078Z,84.38
2022-08-17T11:34:46.069Z,84.38
2022-08-17T11:35:46.063Z,90.00
2022-08-17T11:36:46.056Z,95.62
2022-08-17T11:37:46.076Z,95.62
2022-08-17T11:38:46.041Z,101.25
2022-08-17T11:39:46.106Z,106.88
2022-08-17T11:40:46.024Z,106.88
2022-08-17T11:41:46.017Z,112.50
2022-08-17T11:42:46.024Z,118.12
2022-08-17T11:43:46.007Z,118.12
2022-08-17T11:44:46.006Z,123.75
2022-08-17T11:45:46.012Z,123.75
2022-08-17T11:46:45.992Z,129.38
2022-08-17T11:48:02.244Z,129.38
2022-08-17T11:48:46.977Z,135.00
2022-08-17T11:49:45.959Z,140.62
2022-08-17T11:50:46.000Z,146.25
2022-08-17T11:51:45.947Z,163.12
2022-08-17T11:52:46.787Z,151.88
2022-08-17T11:53:45.947Z,151.88
2022-08-17T11:54:45.925Z,151.88
2022-08-17T11:55:45.923Z,146.25
2022-08-17T11:56:45.936Z,140.62
2022-08-17T11:57:45.911Z,140.62
2022-08-17T11:58:45.902Z,129.38
2022-08-17T11:59:45.888Z,123.75
2022-08-17T12:00:45.880Z,118.12
2022-08-17T12:01:45.882Z,112.50
2022-08-17T12:02:48.375Z,106.88
2022-08-17T12:03:55.472Z,101.25
2022-08-17T12:04:46.929Z,95.62
2022-08-17T12:05:45.875Z,95.62
2022-08-17T12:06:45.879Z,95.62
2022-08-17T12:07:45.889Z,95.62
2022-08-17T12:08:45.836Z,90.00
2022-08-17T12:09:45.823Z,90.00
2022-08-17T12:10:45.813Z,84.38
2022-08-17T12:11:55.508Z,84.38
2022-08-17T12:12:46.815Z,84.38
2022-08-17T12:13:45.797Z,84.38
2022-08-17T12:15:08.971Z,84.38
2022-08-17T12:15:45.779Z,78.75
2022-08-17T12:16:45.766Z,78.75
2022-08-17T12:17:45.769Z,78.75
2022-08-17T12:18:45.772Z,73.12
2022-08-17T12:19:45.755Z,73.12
2022-08-17T12:20:45.750Z,73.12
2022-08-17T12:21:45.746Z,67.50
2022-08-17T12:22:45.729Z,67.50
2022-08-17T12:23:45.725Z,67.50
2022-08-17T12:24:45.734Z,61.88
2022-08-17T12:25:45.705Z,61.88
2022-08-17T12:26:45.696Z,56.25
2022-08-17T12:28:05.120Z,50.62
2022-08-17T12:28:46.710Z,50.62
2022-08-17T12:29:45.679Z,50.62
2022-08-17T12:30:45.674Z,45.00
2022-08-17T12:31:45.661Z,39.38
2022-08-17T12:32:45.647Z,39.38
2022-08-17T12:33:45.650Z,33.75
2022-08-17T12:34:45.666Z,33.75
2022-08-17T12:35:45.638Z,33.75
2022-08-17T12:36:45.642Z,28.12
2022-08-17T12:37:45.619Z,28.12
2022-08-17T12:38:45.619Z,28.12
2022-08-17T12:39:45.665Z,28.12
2022-08-17T12:40:45.590Z,28.12
2022-08-17T12:41:45.626Z,33.75
2022-08-17T12:42:45.637Z,33.75
2022-08-17T12:43:45.575Z,33.75
2022-08-17T12:44:50.532Z,33.75
2022-08-17T12:45:46.580Z,39.38
2022-08-17T12:46:45.546Z,39.38
2022-08-17T12:47:45.546Z,45.00